Markleeville, CA

7:42 AM PST on February 14, 2016 (GMT -0800)
RAWS | | Change Station
CLOSE
Current Station
Personal Weather Station
Location: Markleeville, CA
Elevation: 5500 ft
Nearby Weather Stations

Elev 5500 ft 38.69 °N, 119.77 °W | Updated 54 minutes ago

Clear
Clear
33.0 °F
Feels Like 33.0 °F
N
1.0
Wind Variable Wind from SE
Gusts 6.0 mph

Today
High -- | Low -- °F
--% Chance of Precip.
Yesterday
High -- | Low -- °F
Precip. -- in
Pressure 30.40 in
Visibility 10.0 miles
Clouds Clear
Dew Point 20.0 °F
Humidity 58%
Rainfall in
Snow Depth Not available.
6:51 AM 5:35 PM
Waxing Crescent, 42% visible
METAR KTVL 141453Z AUTO 18004KT 10SM CLR M03/M06 A3037 RMK AO2 SLP293 T10281056 53008
Pressure 30.40 in
Visibility 10.0 miles
Clouds Clear
Dew Point 20.0 °F
Humidity 58%
Rainfall in
Snow Depth Not available.
6:51 AM 5:35 PM
Waxing Crescent, 42% visible
METAR KTVL 141453Z AUTO 18004KT 10SM CLR M03/M06 A3037 RMK AO2 SLP293 T10281056 53008

10-Day Weather Forecast

Almanac

Astronomy

Feb. 14, 2016 Rise Set
Actual Time
Civil Twilight
Nautical Twilight
Astronomical Twilight
Moon
Length of Visible Light
Length of Day
Tomorrow will be .
, % of the Moon is Illuminated

Today's Extremes

State Highs State Lows

Community

WunderPhotos

Upload Photos

1,892,802 photos uploaded!

WunderBlog® & News

Nearby

Air Quality

  Air Quality AQ Index Pollutant
Not available.

Snow Depth

Station Depth Elevation

Earthquake Activity

City Distance Mag. Time & Date
Minimum magnitude displayed is 2.5.

Coastal Water Temperatures

Place Temperature

Stations

Nearby Weather Stations

Station Location Temp. Windchill Dew Point Humidity Wind Precip. Elev Updated Type
                   

Watches & Warnings

There are currently no watches in effect.